sensor_id;sensor_type;location;lat;lon;timestamp;P1;durP1;ratioP1;P2;durP2;ratioP2
75926;SDS011;64605;48.296;16.416;2023-05-16T00:01:07;4.68;;;3.28;;
75926;SDS011;64605;48.296;16.416;2023-05-16T00:03:34;3.35;;;2.95;;
75926;SDS011;64605;48.296;16.416;2023-05-16T00:06:01;2.95;;;2.50;;
75926;SDS011;64605;48.296;16.416;2023-05-16T00:08:27;3.70;;;2.78;;
75926;SDS011;64605;48.296;16.416;2023-05-16T00:10:53;3.10;;;2.80;;
75926;SDS011;64605;48.296;16.416;2023-05-16T00:13:19;3.55;;;2.70;;
75926;SDS011;64605;48.296;16.416;2023-05-16T00:15:49;3.50;;;3.20;;
75926;SDS011;64605;48.296;16.416;2023-05-16T00:18:16;3.65;;;2.72;;
75926;SDS011;64605;48.296;16.416;2023-05-16T00:20:43;4.07;;;2.78;;
75926;SDS011;64605;48.296;16.416;2023-05-16T00:23:09;3.63;;;2.70;;
75926;SDS011;64605;48.296;16.416;2023-05-16T00:25:36;3.25;;;2.83;;
75926;SDS011;64605;48.296;16.416;2023-05-16T00:28:02;4.18;;;2.70;;
75926;SDS011;64605;48.296;16.416;2023-05-16T00:30:28;5.53;;;2.90;;
75926;SDS011;64605;48.296;16.416;2023-05-16T00:32:54;3.40;;;2.60;;
75926;SDS011;64605;48.296;16.416;2023-05-16T00:35:20;4.50;;;2.78;;
75926;SDS011;64605;48.296;16.416;2023-05-16T00:37:45;4.00;;;2.60;;
75926;SDS011;64605;48.296;16.416;2023-05-16T00:40:11;6.15;;;2.88;;
75926;SDS011;64605;48.296;16.416;2023-05-16T00:42:37;3.72;;;2.58;;
75926;SDS011;64605;48.296;16.416;2023-05-16T00:45:03;6.00;;;2.30;;
75926;SDS011;64605;48.296;16.416;2023-05-16T00:47:30;5.65;;;2.45;;
75926;SDS011;64605;48.296;16.416;2023-05-16T00:49:56;3.50;;;2.50;;
75926;SDS011;64605;48.296;16.416;2023-05-16T00:52:22;3.13;;;2.83;;
75926;SDS011;64605;48.296;16.416;2023-05-16T00:54:49;3.55;;;2.88;;
75926;SDS011;64605;48.296;16.416;2023-05-16T00:57:15;3.17;;;2.75;;
75926;SDS011;64605;48.296;16.416;2023-05-16T00:59:41;2.75;;;2.20;;
75926;SDS011;64605;48.296;16.416;2023-05-16T01:02:08;2.63;;;2.42;;
75926;SDS011;64605;48.296;16.416;2023-05-16T01:04:34;4.40;;;2.92;;
75926;SDS011;64605;48.296;16.416;2023-05-16T01:07:00;2.75;;;2.22;;
75926;SDS011;64605;48.296;16.416;2023-05-16T01:09:26;4.22;;;2.50;;
75926;SDS011;64605;48.296;16.416;2023-05-16T01:14:34;2.60;;;2.40;;
75926;SDS011;64605;48.296;16.416;2023-05-16T01:17:32;2.90;;;2.60;;
75926;SDS011;64605;48.296;16.416;2023-05-16T01:20:12;3.33;;;2.58;;
75926;SDS011;64605;48.296;16.416;2023-05-16T01:25:56;3.95;;;2.92;;
75926;SDS011;64605;48.296;16.416;2023-05-16T01:28:28;3.22;;;2.65;;
75926;SDS011;64605;48.296;16.416;2023-05-16T01:30:54;3.70;;;2.50;;
75926;SDS011;64605;48.296;16.416;2023-05-16T01:33:20;4.60;;;2.70;;
75926;SDS011;64605;48.296;16.416;2023-05-16T01:35:52;3.38;;;2.72;;
75926;SDS011;64605;48.296;16.416;2023-05-16T01:38:48;5.18;;;2.92;;
75926;SDS011;64605;48.296;16.416;2023-05-16T01:41:24;2.70;;;2.50;;
75926;SDS011;64605;48.296;16.416;2023-05-16T01:44:00;3.03;;;2.72;;
75926;SDS011;64605;48.296;16.416;2023-05-16T01:46:33;3.00;;;2.70;;
75926;SDS011;64605;48.296;16.416;2023-05-16T01:49:04;5.63;;;2.80;;
75926;SDS011;64605;48.296;16.416;2023-05-16T01:51:41;4.40;;;2.80;;
75926;SDS011;64605;48.296;16.416;2023-05-16T01:54:10;3.10;;;2.80;;
75926;SDS011;64605;48.296;16.416;2023-05-16T01:56:37;3.63;;;2.60;;
75926;SDS011;64605;48.296;16.416;2023-05-16T01:59:07;2.95;;;2.60;;
75926;SDS011;64605;48.296;16.416;2023-05-16T02:01:35;4.55;;;2.83;;
75926;SDS011;64605;48.296;16.416;2023-05-16T02:04:00;3.47;;;3.17;;
75926;SDS011;64605;48.296;16.416;2023-05-16T02:06:26;3.83;;;2.92;;
75926;SDS011;64605;48.296;16.416;2023-05-16T02:08:52;3.10;;;2.80;;
75926;SDS011;64605;48.296;16.416;2023-05-16T02:11:17;3.92;;;2.45;;
75926;SDS011;64605;48.296;16.416;2023-05-16T02:13:43;3.22;;;2.90;;
75926;SDS011;64605;48.296;16.416;2023-05-16T02:16:11;5.18;;;3.33;;
75926;SDS011;64605;48.296;16.416;2023-05-16T02:18:37;3.33;;;3.03;;
75926;SDS011;64605;48.296;16.416;2023-05-16T02:21:03;3.22;;;2.92;;
75926;SDS011;64605;48.296;16.416;2023-05-16T02:23:29;2.78;;;2.50;;
75926;SDS011;64605;48.296;16.416;2023-05-16T02:25:54;5.35;;;3.00;;
75926;SDS011;64605;48.296;16.416;2023-05-16T02:28:20;3.33;;;2.85;;
75926;SDS011;64605;48.296;16.416;2023-05-16T02:30:54;4.90;;;3.30;;
75926;SDS011;64605;48.296;16.416;2023-05-16T02:33:24;3.20;;;2.88;;
75926;SDS011;64605;48.296;16.416;2023-05-16T02:35:51;4.30;;;3.10;;
75926;SDS011;64605;48.296;16.416;2023-05-16T02:38:17;4.60;;;3.25;;
75926;SDS011;64605;48.296;16.416;2023-05-16T02:40:45;4.32;;;3.38;;
75926;SDS011;64605;48.296;16.416;2023-05-16T02:43:13;4.70;;;3.15;;
75926;SDS011;64605;48.296;16.416;2023-05-16T02:45:39;5.25;;;3.20;;
75926;SDS011;64605;48.296;16.416;2023-05-16T02:48:05;3.30;;;3.00;;
75926;SDS011;64605;48.296;16.416;2023-05-16T02:50:31;3.22;;;2.85;;
75926;SDS011;64605;48.296;16.416;2023-05-16T02:52:57;5.30;;;3.20;;
75926;SDS011;64605;48.296;16.416;2023-05-16T02:55:24;4.20;;;3.17;;
75926;SDS011;64605;48.296;16.416;2023-05-16T02:57:50;3.90;;;2.95;;
75926;SDS011;64605;48.296;16.416;2023-05-16T03:00:16;3.97;;;3.00;;
75926;SDS011;64605;48.296;16.416;2023-05-16T03:02:42;4.53;;;2.63;;
75926;SDS011;64605;48.296;16.416;2023-05-16T03:05:09;3.63;;;3.25;;
75926;SDS011;64605;48.296;16.416;2023-05-16T03:07:35;4.55;;;3.85;;
75926;SDS011;64605;48.296;16.416;2023-05-16T03:10:01;3.63;;;2.83;;
75926;SDS011;64605;48.296;16.416;2023-05-16T03:12:27;3.65;;;3.35;;
75926;SDS011;64605;48.296;16.416;2023-05-16T03:14:53;4.07;;;3.60;;
75926;SDS011;64605;48.296;16.416;2023-05-16T03:17:18;5.03;;;3.35;;
75926;SDS011;64605;48.296;16.416;2023-05-16T03:19:44;4.63;;;3.30;;
75926;SDS011;64605;48.296;16.416;2023-05-16T03:22:10;5.18;;;3.72;;
75926;SDS011;64605;48.296;16.416;2023-05-16T03:24:36;2.97;;;2.78;;
75926;SDS011;64605;48.296;16.416;2023-05-16T03:27:01;3.70;;;3.30;;
75926;SDS011;64605;48.296;16.416;2023-05-16T03:29:28;4.90;;;3.88;;
75926;SDS011;64605;48.296;16.416;2023-05-16T03:31:54;3.83;;;3.42;;
75926;SDS011;64605;48.296;16.416;2023-05-16T03:34:20;3.63;;;3.28;;
75926;SDS011;64605;48.296;16.416;2023-05-16T03:36:48;4.13;;;3.42;;
75926;SDS011;64605;48.296;16.416;2023-05-16T03:39:15;5.20;;;4.00;;
75926;SDS011;64605;48.296;16.416;2023-05-16T03:41:40;4.38;;;3.58;;
75926;SDS011;64605;48.296;16.416;2023-05-16T03:44:06;5.05;;;3.55;;
75926;SDS011;64605;48.296;16.416;2023-05-16T03:46:32;4.57;;;3.83;;
75926;SDS011;64605;48.296;16.416;2023-05-16T03:48:58;4.38;;;3.50;;
75926;SDS011;64605;48.296;16.416;2023-05-16T03:51:24;4.95;;;4.03;;
75926;SDS011;64605;48.296;16.416;2023-05-16T03:53:50;5.72;;;3.60;;
75926;SDS011;64605;48.296;16.416;2023-05-16T03:56:15;4.85;;;3.80;;
75926;SDS011;64605;48.296;16.416;2023-05-16T03:58:41;4.93;;;4.05;;
75926;SDS011;64605;48.296;16.416;2023-05-16T04:01:07;4.72;;;3.90;;
75926;SDS011;64605;48.296;16.416;2023-05-16T04:03:32;4.85;;;3.63;;
75926;SDS011;64605;48.296;16.416;2023-05-16T04:05:58;8.10;;;4.15;;
75926;SDS011;64605;48.296;16.416;2023-05-16T04:08:24;4.22;;;3.28;;
75926;SDS011;64605;48.296;16.416;2023-05-16T04:10:50;4.50;;;3.50;;
75926;SDS011;64605;48.296;16.416;2023-05-16T04:13:16;4.15;;;3.75;;
75926;SDS011;64605;48.296;16.416;2023-05-16T04:15:41;6.15;;;3.95;;
75926;SDS011;64605;48.296;16.416;2023-05-16T04:18:07;6.18;;;4.25;;
75926;SDS011;64605;48.296;16.416;2023-05-16T04:20:34;4.43;;;3.97;;
75926;SDS011;64605;48.296;16.416;2023-05-16T04:23:00;5.57;;;4.05;;
75926;SDS011;64605;48.296;16.416;2023-05-16T04:25:26;6.55;;;4.22;;
75926;SDS011;64605;48.296;16.416;2023-05-16T04:27:52;4.22;;;3.83;;
75926;SDS011;64605;48.296;16.416;2023-05-16T04:30:18;4.68;;;3.90;;
75926;SDS011;64605;48.296;16.416;2023-05-16T04:32:43;5.18;;;3.83;;
75926;SDS011;64605;48.296;16.416;2023-05-16T04:35:09;5.00;;;4.55;;
75926;SDS011;64605;48.296;16.416;2023-05-16T04:37:35;4.88;;;4.10;;
75926;SDS011;64605;48.296;16.416;2023-05-16T04:40:01;6.20;;;5.00;;
75926;SDS011;64605;48.296;16.416;2023-05-16T04:42:27;6.13;;;4.68;;
75926;SDS011;64605;48.296;16.416;2023-05-16T04:44:53;10.32;;;7.15;;
75926;SDS011;64605;48.296;16.416;2023-05-16T04:47:20;5.43;;;4.63;;
75926;SDS011;64605;48.296;16.416;2023-05-16T04:49:45;5.28;;;4.25;;
75926;SDS011;64605;48.296;16.416;2023-05-16T04:52:11;6.60;;;4.70;;
75926;SDS011;64605;48.296;16.416;2023-05-16T04:54:37;8.07;;;4.32;;
75926;SDS011;64605;48.296;16.416;2023-05-16T04:57:03;5.70;;;4.78;;
75926;SDS011;64605;48.296;16.416;2023-05-16T04:59:29;4.90;;;4.38;;
75926;SDS011;64605;48.296;16.416;2023-05-16T05:01:55;5.88;;;4.88;;
75926;SDS011;64605;48.296;16.416;2023-05-16T05:04:21;7.43;;;5.35;;
75926;SDS011;64605;48.296;16.416;2023-05-16T05:06:47;5.70;;;5.00;;
75926;SDS011;64605;48.296;16.416;2023-05-16T05:09:12;6.60;;;5.32;;
75926;SDS011;64605;48.296;16.416;2023-05-16T05:11:38;6.60;;;5.90;;
75926;SDS011;64605;48.296;16.416;2023-05-16T05:14:04;6.68;;;5.35;;
75926;SDS011;64605;48.296;16.416;2023-05-16T05:16:29;6.85;;;5.03;;
75926;SDS011;64605;48.296;16.416;2023-05-16T05:18:55;8.25;;;5.47;;
75926;SDS011;64605;48.296;16.416;2023-05-16T05:21:21;7.55;;;5.40;;
75926;SDS011;64605;48.296;16.416;2023-05-16T05:23:49;6.43;;;5.75;;
75926;SDS011;64605;48.296;16.416;2023-05-16T05:26:15;6.85;;;5.60;;
75926;SDS011;64605;48.296;16.416;2023-05-16T05:28:41;7.38;;;6.22;;
75926;SDS011;64605;48.296;16.416;2023-05-16T05:31:06;6.85;;;6.03;;
75926;SDS011;64605;48.296;16.416;2023-05-16T05:33:32;8.02;;;5.65;;
75926;SDS011;64605;48.296;16.416;2023-05-16T05:35:58;6.53;;;5.80;;
75926;SDS011;64605;48.296;16.416;2023-05-16T05:38:23;6.20;;;5.60;;
75926;SDS011;64605;48.296;16.416;2023-05-16T05:40:49;5.78;;;5.18;;
75926;SDS011;64605;48.296;16.416;2023-05-16T05:43:15;6.82;;;5.38;;
75926;SDS011;64605;48.296;16.416;2023-05-16T05:45:40;7.53;;;5.88;;
75926;SDS011;64605;48.296;16.416;2023-05-16T05:48:06;8.20;;;5.50;;
75926;SDS011;64605;48.296;16.416;2023-05-16T05:50:32;8.13;;;5.63;;
75926;SDS011;64605;48.296;16.416;2023-05-16T05:52:58;6.38;;;5.25;;
75926;SDS011;64605;48.296;16.416;2023-05-16T05:55:24;6.75;;;5.28;;
75926;SDS011;64605;48.296;16.416;2023-05-16T05:57:50;6.65;;;5.55;;
75926;SDS011;64605;48.296;16.416;2023-05-16T06:00:16;9.05;;;5.93;;
75926;SDS011;64605;48.296;16.416;2023-05-16T06:02:42;7.45;;;5.63;;
75926;SDS011;64605;48.296;16.416;2023-05-16T06:05:07;6.32;;;5.45;;
75926;SDS011;64605;48.296;16.416;2023-05-16T06:07:33;7.28;;;5.50;;
75926;SDS011;64605;48.296;16.416;2023-05-16T06:09:59;6.07;;;5.47;;
75926;SDS011;64605;48.296;16.416;2023-05-16T06:12:28;7.82;;;5.65;;
75926;SDS011;64605;48.296;16.416;2023-05-16T06:14:54;6.15;;;5.10;;
75926;SDS011;64605;48.296;16.416;2023-05-16T06:17:20;5.85;;;5.25;;
75926;SDS011;64605;48.296;16.416;2023-05-16T06:19:46;6.90;;;5.40;;
75926;SDS011;64605;48.296;16.416;2023-05-16T06:22:11;6.78;;;5.50;;
75926;SDS011;64605;48.296;16.416;2023-05-16T06:24:37;6.00;;;5.40;;
75926;SDS011;64605;48.296;16.416;2023-05-16T06:27:03;5.22;;;4.72;;
75926;SDS011;64605;48.296;16.416;2023-05-16T06:29:29;5.13;;;4.40;;
75926;SDS011;64605;48.296;16.416;2023-05-16T06:31:55;7.03;;;5.05;;
75926;SDS011;64605;48.296;16.416;2023-05-16T06:34:20;7.20;;;4.68;;
75926;SDS011;64605;48.296;16.416;2023-05-16T06:36:52;5.05;;;4.65;;
75926;SDS011;64605;48.296;16.416;2023-05-16T06:39:18;8.40;;;5.80;;
75926;SDS011;64605;48.296;16.416;2023-05-16T06:41:44;5.75;;;4.88;;
75926;SDS011;64605;48.296;16.416;2023-05-16T06:44:10;9.05;;;4.85;;
75926;SDS011;64605;48.296;16.416;2023-05-16T06:46:36;6.85;;;4.75;;
75926;SDS011;64605;48.296;16.416;2023-05-16T06:49:02;7.68;;;5.65;;
75926;SDS011;64605;48.296;16.416;2023-05-16T06:51:28;7.57;;;6.63;;
75926;SDS011;64605;48.296;16.416;2023-05-16T06:53:55;7.68;;;6.85;;
75926;SDS011;64605;48.296;16.416;2023-05-16T06:56:21;9.20;;;7.07;;
75926;SDS011;64605;48.296;16.416;2023-05-16T06:58:47;9.75;;;7.25;;
75926;SDS011;64605;48.296;16.416;2023-05-16T07:01:13;7.60;;;6.35;;
75926;SDS011;64605;48.296;16.416;2023-05-16T07:03:39;7.78;;;6.40;;
75926;SDS011;64605;48.296;16.416;2023-05-16T07:06:05;7.82;;;5.93;;
75926;SDS011;64605;48.296;16.416;2023-05-16T07:08:31;8.27;;;5.93;;
75926;SDS011;64605;48.296;16.416;2023-05-16T07:10:57;8.52;;;6.60;;
75926;SDS011;64605;48.296;16.416;2023-05-16T07:13:22;6.78;;;5.75;;
75926;SDS011;64605;48.296;16.416;2023-05-16T07:15:48;8.45;;;6.47;;
75926;SDS011;64605;48.296;16.416;2023-05-16T07:18:14;7.25;;;5.57;;
75926;SDS011;64605;48.296;16.416;2023-05-16T07:20:39;9.68;;;6.07;;
75926;SDS011;64605;48.296;16.416;2023-05-16T07:23:05;6.20;;;5.35;;
75926;SDS011;64605;48.296;16.416;2023-05-16T07:25:31;6.93;;;5.82;;
75926;SDS011;64605;48.296;16.416;2023-05-16T07:27:57;8.23;;;6.32;;
75926;SDS011;64605;48.296;16.416;2023-05-16T07:30:23;8.93;;;6.25;;
75926;SDS011;64605;48.296;16.416;2023-05-16T07:32:48;7.03;;;6.35;;
75926;SDS011;64605;48.296;16.416;2023-05-16T07:35:14;7.22;;;6.55;;
75926;SDS011;64605;48.296;16.416;2023-05-16T07:37:40;6.75;;;5.97;;
75926;SDS011;64605;48.296;16.416;2023-05-16T07:40:07;12.43;;;6.70;;
75926;SDS011;64605;48.296;16.416;2023-05-16T07:42:33;8.05;;;6.53;;
75926;SDS011;64605;48.296;16.416;2023-05-16T07:44:59;14.70;;;6.43;;
75926;SDS011;64605;48.296;16.416;2023-05-16T07:47:26;11.75;;;7.22;;
75926;SDS011;64605;48.296;16.416;2023-05-16T07:49:51;10.45;;;6.80;;
75926;SDS011;64605;48.296;16.416;2023-05-16T07:52:17;10.55;;;7.68;;
75926;SDS011;64605;48.296;16.416;2023-05-16T07:54:44;10.57;;;7.68;;
75926;SDS011;64605;48.296;16.416;2023-05-16T07:57:10;10.93;;;7.45;;
75926;SDS011;64605;48.296;16.416;2023-05-16T07:59:37;9.77;;;7.88;;
75926;SDS011;64605;48.296;16.416;2023-05-16T08:02:03;9.50;;;7.97;;
75926;SDS011;64605;48.296;16.416;2023-05-16T08:04:29;10.13;;;8.00;;
75926;SDS011;64605;48.296;16.416;2023-05-16T08:06:54;9.52;;;8.60;;
75926;SDS011;64605;48.296;16.416;2023-05-16T08:09:20;11.27;;;8.70;;
75926;SDS011;64605;48.296;16.416;2023-05-16T08:11:45;9.13;;;8.23;;
75926;SDS011;64605;48.296;16.416;2023-05-16T08:14:11;10.85;;;8.43;;
75926;SDS011;64605;48.296;16.416;2023-05-16T08:16:37;11.50;;;8.90;;
75926;SDS011;64605;48.296;16.416;2023-05-16T08:19:02;15.18;;;8.75;;
75926;SDS011;64605;48.296;16.416;2023-05-16T08:21:28;11.15;;;7.75;;
75926;SDS011;64605;48.296;16.416;2023-05-16T08:23:55;10.32;;;7.68;;
75926;SDS011;64605;48.296;16.416;2023-05-16T08:26:21;8.93;;;8.10;;
75926;SDS011;64605;48.296;16.416;2023-05-16T08:28:47;9.25;;;8.13;;
75926;SDS011;64605;48.296;16.416;2023-05-16T08:31:13;10.82;;;7.43;;
75926;SDS011;64605;48.296;16.416;2023-05-16T08:33:38;13.32;;;7.35;;
75926;SDS011;64605;48.296;16.416;2023-05-16T08:36:04;8.98;;;7.80;;
75926;SDS011;64605;48.296;16.416;2023-05-16T08:38:30;8.25;;;7.30;;
75926;SDS011;64605;48.296;16.416;2023-05-16T08:40:56;9.10;;;7.88;;
75926;SDS011;64605;48.296;16.416;2023-05-16T08:43:21;8.23;;;7.40;;
75926;SDS011;64605;48.296;16.416;2023-05-16T08:45:47;8.35;;;7.55;;
75926;SDS011;64605;48.296;16.416;2023-05-16T08:48:13;8.45;;;7.65;;
75926;SDS011;64605;48.296;16.416;2023-05-16T08:50:40;9.40;;;8.40;;
75926;SDS011;64605;48.296;16.416;2023-05-16T08:53:08;9.88;;;8.48;;
75926;SDS011;64605;48.296;16.416;2023-05-16T08:55:35;9.38;;;8.27;;
75926;SDS011;64605;48.296;16.416;2023-05-16T08:58:03;10.95;;;8.30;;
75926;SDS011;64605;48.296;16.416;2023-05-16T09:00:29;8.68;;;7.88;;
75926;SDS011;64605;48.296;16.416;2023-05-16T09:02:55;9.85;;;8.80;;
75926;SDS011;64605;48.296;16.416;2023-05-16T09:05:21;10.38;;;8.60;;
75926;SDS011;64605;48.296;16.416;2023-05-16T09:07:48;11.77;;;9.43;;
75926;SDS011;64605;48.296;16.416;2023-05-16T09:10:14;10.70;;;8.73;;
75926;SDS011;64605;48.296;16.416;2023-05-16T09:12:40;12.93;;;9.77;;
75926;SDS011;64605;48.296;16.416;2023-05-16T09:15:07;13.43;;;8.80;;
75926;SDS011;64605;48.296;16.416;2023-05-16T09:17:38;12.32;;;10.93;;
75926;SDS011;64605;48.296;16.416;2023-05-16T09:20:11;13.77;;;11.73;;
75926;SDS011;64605;48.296;16.416;2023-05-16T09:22:39;14.68;;;10.65;;
75926;SDS011;64605;48.296;16.416;2023-05-16T09:25:05;13.68;;;12.02;;
75926;SDS011;64605;48.296;16.416;2023-05-16T09:27:31;13.85;;;11.93;;
75926;SDS011;64605;48.296;16.416;2023-05-16T09:29:58;15.63;;;12.43;;
75926;SDS011;64605;48.296;16.416;2023-05-16T09:32:24;14.57;;;12.90;;
75926;SDS011;64605;48.296;16.416;2023-05-16T09:34:51;15.93;;;13.65;;
75926;SDS011;64605;48.296;16.416;2023-05-16T09:37:18;17.58;;;14.32;;
75926;SDS011;64605;48.296;16.416;2023-05-16T09:39:45;14.68;;;13.18;;
75926;SDS011;64605;48.296;16.416;2023-05-16T09:42:12;14.48;;;13.00;;
75926;SDS011;64605;48.296;16.416;2023-05-16T09:44:40;13.85;;;12.45;;
75926;SDS011;64605;48.296;16.416;2023-05-16T09:47:13;16.65;;;13.02;;
75926;SDS011;64605;48.296;16.416;2023-05-16T09:49:45;15.00;;;13.38;;
75926;SDS011;64605;48.296;16.416;2023-05-16T09:52:15;16.17;;;13.75;;
75926;SDS011;64605;48.296;16.416;2023-05-16T09:54:41;14.50;;;12.73;;
75926;SDS011;64605;48.296;16.416;2023-05-16T09:57:07;13.73;;;12.30;;
75926;SDS011;64605;48.296;16.416;2023-05-16T09:59:36;14.20;;;12.68;;
75926;SDS011;64605;48.296;16.416;2023-05-16T10:02:04;14.65;;;13.10;;
75926;SDS011;64605;48.296;16.416;2023-05-16T10:04:32;14.70;;;13.02;;
75926;SDS011;64605;48.296;16.416;2023-05-16T10:07:00;16.67;;;14.52;;
75926;SDS011;64605;48.296;16.416;2023-05-16T10:09:28;17.50;;;15.70;;
75926;SDS011;64605;48.296;16.416;2023-05-16T10:12:02;20.52;;;16.10;;
75926;SDS011;64605;48.296;16.416;2023-05-16T10:14:36;19.17;;;15.77;;
75926;SDS011;64605;48.296;16.416;2023-05-16T10:17:05;16.50;;;14.77;;
75926;SDS011;64605;48.296;16.416;2023-05-16T10:19:33;20.92;;;15.60;;
75926;SDS011;64605;48.296;16.416;2023-05-16T10:22:03;16.52;;;14.85;;
75926;SDS011;64605;48.296;16.416;2023-05-16T10:24:36;17.15;;;15.35;;
75926;SDS011;64605;48.296;16.416;2023-05-16T10:27:29;19.15;;;16.48;;
75926;SDS011;64605;48.296;16.416;2023-05-16T10:29:55;19.83;;;16.90;;
75926;SDS011;64605;48.296;16.416;2023-05-16T10:32:22;19.15;;;17.00;;
75926;SDS011;64605;48.296;16.416;2023-05-16T10:34:49;19.77;;;17.67;;
75926;SDS011;64605;48.296;16.416;2023-05-16T10:37:15;21.38;;;17.95;;
75926;SDS011;64605;48.296;16.416;2023-05-16T10:39:41;19.15;;;16.17;;
75926;SDS011;64605;48.296;16.416;2023-05-16T10:42:07;20.23;;;16.17;;
75926;SDS011;64605;48.296;16.416;2023-05-16T10:44:32;16.42;;;14.65;;
75926;SDS011;64605;48.296;16.416;2023-05-16T10:46:58;18.27;;;14.45;;
75926;SDS011;64605;48.296;16.416;2023-05-16T10:49:26;18.70;;;15.50;;
75926;SDS011;64605;48.296;16.416;2023-05-16T10:52:02;18.00;;;14.50;;
75926;SDS011;64605;48.296;16.416;2023-05-16T10:54:36;19.92;;;15.60;;
75926;SDS011;64605;48.296;16.416;2023-05-16T10:57:24;16.42;;;14.82;;
75926;SDS011;64605;48.296;16.416;2023-05-16T10:59:50;15.20;;;13.60;;
75926;SDS011;64605;48.296;16.416;2023-05-16T11:02:26;15.13;;;13.50;;
75926;SDS011;64605;48.296;16.416;2023-05-16T11:04:54;17.20;;;14.25;;
75926;SDS011;64605;48.296;16.416;2023-05-16T11:07:21;15.23;;;13.55;;
75926;SDS011;64605;48.296;16.416;2023-05-16T11:12:49;15.27;;;13.77;;
75926;SDS011;64605;48.296;16.416;2023-05-16T11:20:40;18.10;;;15.20;;
75926;SDS011;64605;48.296;16.416;2023-05-16T11:25:41;16.50;;;14.48;;
75926;SDS011;64605;48.296;16.416;2023-05-16T11:28:08;18.13;;;14.65;;
75926;SDS011;64605;48.296;16.416;2023-05-16T11:30:36;14.60;;;13.10;;
75926;SDS011;64605;48.296;16.416;2023-05-16T11:33:05;16.77;;;14.38;;
75926;SDS011;64605;48.296;16.416;2023-05-16T11:35:31;14.88;;;13.15;;
75926;SDS011;64605;48.296;16.416;2023-05-16T11:37:57;16.92;;;14.60;;
75926;SDS011;64605;48.296;16.416;2023-05-16T11:40:23;16.00;;;14.30;;
75926;SDS011;64605;48.296;16.416;2023-05-16T11:42:50;17.45;;;14.77;;
75926;SDS011;64605;48.296;16.416;2023-05-16T11:45:17;17.65;;;14.27;;
75926;SDS011;64605;48.296;16.416;2023-05-16T11:47:46;15.80;;;13.95;;
75926;SDS011;64605;48.296;16.416;2023-05-16T11:50:13;15.45;;;13.95;;
75926;SDS011;64605;48.296;16.416;2023-05-16T11:52:42;16.00;;;14.50;;
75926;SDS011;64605;48.296;16.416;2023-05-16T11:55:12;15.52;;;14.02;;
75926;SDS011;64605;48.296;16.416;2023-05-16T11:57:40;15.98;;;14.38;;
75926;SDS011;64605;48.296;16.416;2023-05-16T12:00:17;16.33;;;13.18;;
75926;SDS011;64605;48.296;16.416;2023-05-16T12:02:48;15.15;;;13.60;;
75926;SDS011;64605;48.296;16.416;2023-05-16T12:05:14;17.33;;;15.45;;
75926;SDS011;64605;48.296;16.416;2023-05-16T12:07:45;15.75;;;14.15;;
75926;SDS011;64605;48.296;16.416;2023-05-16T12:10:12;16.75;;;14.50;;
75926;SDS011;64605;48.296;16.416;2023-05-16T12:12:40;15.95;;;14.27;;
75926;SDS011;64605;48.296;16.416;2023-05-16T12:15:08;17.50;;;15.70;;
75926;SDS011;64605;48.296;16.416;2023-05-16T12:17:34;16.88;;;14.02;;
75926;SDS011;64605;48.296;16.416;2023-05-16T12:20:01;15.00;;;13.07;;
75926;SDS011;64605;48.296;16.416;2023-05-16T12:22:34;13.32;;;11.80;;
75926;SDS011;64605;48.296;16.416;2023-05-16T12:27:52;15.93;;;14.32;;
75926;SDS011;64605;48.296;16.416;2023-05-16T12:30:20;15.27;;;13.73;;
75926;SDS011;64605;48.296;16.416;2023-05-16T12:32:54;14.43;;;13.02;;
75926;SDS011;64605;48.296;16.416;2023-05-16T12:35:31;14.43;;;12.93;;
75926;SDS011;64605;48.296;16.416;2023-05-16T12:37:58;14.43;;;11.40;;
75926;SDS011;64605;48.296;16.416;2023-05-16T12:40:30;13.95;;;12.02;;
75926;SDS011;64605;48.296;16.416;2023-05-16T12:42:56;13.68;;;12.38;;
75926;SDS011;64605;48.296;16.416;2023-05-16T12:45:22;14.85;;;13.45;;
75926;SDS011;64605;48.296;16.416;2023-05-16T12:47:48;14.75;;;13.35;;
75926;SDS011;64605;48.296;16.416;2023-05-16T12:50:14;15.85;;;14.27;;
75926;SDS011;64605;48.296;16.416;2023-05-16T12:57:41;15.25;;;13.85;;
75926;SDS011;64605;48.296;16.416;2023-05-16T13:00:09;16.70;;;12.90;;
75926;SDS011;64605;48.296;16.416;2023-05-16T13:02:36;16.73;;;15.02;;
75926;SDS011;64605;48.296;16.416;2023-05-16T13:05:03;17.13;;;15.30;;
75926;SDS011;64605;48.296;16.416;2023-05-16T13:07:29;15.70;;;14.10;;
75926;SDS011;64605;48.296;16.416;2023-05-16T13:09:55;14.65;;;12.80;;
75926;SDS011;64605;48.296;16.416;2023-05-16T13:12:20;13.55;;;12.25;;
75926;SDS011;64605;48.296;16.416;2023-05-16T13:14:50;14.27;;;12.77;;
75926;SDS011;64605;48.296;16.416;2023-05-16T13:17:19;14.80;;;13.40;;
75926;SDS011;64605;48.296;16.416;2023-05-16T13:19:45;15.60;;;13.38;;
75926;SDS011;64605;48.296;16.416;2023-05-16T13:22:11;15.15;;;13.75;;
75926;SDS011;64605;48.296;16.416;2023-05-16T13:24:37;16.17;;;14.57;;
75926;SDS011;64605;48.296;16.416;2023-05-16T13:27:02;16.00;;;14.50;;
75926;SDS011;64605;48.296;16.416;2023-05-16T13:29:28;16.63;;;15.10;;
75926;SDS011;64605;48.296;16.416;2023-05-16T13:31:54;16.17;;;14.52;;
75926;SDS011;64605;48.296;16.416;2023-05-16T13:34:20;15.48;;;14.07;;
75926;SDS011;64605;48.296;16.416;2023-05-16T13:36:46;16.05;;;14.40;;
75926;SDS011;64605;48.296;16.416;2023-05-16T13:39:13;17.73;;;15.35;;
75926;SDS011;64605;48.296;16.416;2023-05-16T13:41:38;15.45;;;13.85;;
75926;SDS011;64605;48.296;16.416;2023-05-16T13:44:06;16.45;;;14.82;;
75926;SDS011;64605;48.296;16.416;2023-05-16T13:46:31;16.58;;;14.98;;
75926;SDS011;64605;48.296;16.416;2023-05-16T13:48:57;16.80;;;15.15;;
75926;SDS011;64605;48.296;16.416;2023-05-16T13:51:23;15.82;;;14.32;;
75926;SDS011;64605;48.296;16.416;2023-05-16T13:53:49;17.75;;;14.88;;
75926;SDS011;64605;48.296;16.416;2023-05-16T13:56:14;17.42;;;14.55;;
75926;SDS011;64605;48.296;16.416;2023-05-16T13:58:40;16.48;;;14.90;;
75926;SDS011;64605;48.296;16.416;2023-05-16T14:01:06;16.63;;;14.63;;
75926;SDS011;64605;48.296;16.416;2023-05-16T14:03:31;17.27;;;15.50;;
75926;SDS011;64605;48.296;16.416;2023-05-16T14:05:57;15.82;;;14.23;;
75926;SDS011;64605;48.296;16.416;2023-05-16T14:08:23;16.90;;;15.23;;
75926;SDS011;64605;48.296;16.416;2023-05-16T14:10:48;16.88;;;15.18;;
75926;SDS011;64605;48.296;16.416;2023-05-16T14:13:14;15.73;;;14.13;;
75926;SDS011;64605;48.296;16.416;2023-05-16T14:15:40;17.42;;;15.75;;
75926;SDS011;64605;48.296;16.416;2023-05-16T14:18:05;15.75;;;14.02;;
75926;SDS011;64605;48.296;16.416;2023-05-16T14:20:32;16.77;;;15.05;;
75926;SDS011;64605;48.296;16.416;2023-05-16T14:22:58;18.08;;;15.88;;
75926;SDS011;64605;48.296;16.416;2023-05-16T14:25:23;16.02;;;14.35;;
75926;SDS011;64605;48.296;16.416;2023-05-16T14:27:49;16.83;;;15.10;;
75926;SDS011;64605;48.296;16.416;2023-05-16T14:30:15;17.40;;;15.70;;
75926;SDS011;64605;48.296;16.416;2023-05-16T14:32:41;16.48;;;14.63;;
75926;SDS011;64605;48.296;16.416;2023-05-16T14:35:07;17.27;;;15.63;;
75926;SDS011;64605;48.296;16.416;2023-05-16T14:37:36;17.90;;;16.20;;
75926;SDS011;64605;48.296;16.416;2023-05-16T14:40:01;17.55;;;15.85;;
75926;SDS011;64605;48.296;16.416;2023-05-16T14:42:29;16.77;;;15.07;;
75926;SDS011;64605;48.296;16.416;2023-05-16T14:44:55;17.83;;;16.13;;
75926;SDS011;64605;48.296;16.416;2023-05-16T14:47:21;17.63;;;16.02;;